sensor_id;sensor_type;location;lat;lon;timestamp;P1;durP1;ratioP1;P2;durP2;ratioP2
20026;SDS011;10174;42.688;23.344;2023-04-01T00:01:03;47.70;;;21.40;;
20026;SDS011;10174;42.688;23.344;2023-04-01T00:03:29;52.10;;;21.02;;
20026;SDS011;10174;42.688;23.344;2023-04-01T00:05:56;46.58;;;20.88;;
20026;SDS011;10174;42.688;23.344;2023-04-01T00:08:22;52.53;;;21.60;;
20026;SDS011;10174;42.688;23.344;2023-04-01T00:10:48;48.17;;;22.13;;
20026;SDS011;10174;42.688;23.344;2023-04-01T00:13:13;50.47;;;20.88;;
20026;SDS011;10174;42.688;23.344;2023-04-01T00:15:39;50.40;;;20.98;;
20026;SDS011;10174;42.688;23.344;2023-04-01T00:18:05;38.92;;;18.45;;
20026;SDS011;10174;42.688;23.344;2023-04-01T00:20:31;37.92;;;18.95;;
20026;SDS011;10174;42.688;23.344;2023-04-01T00:22:57;39.55;;;18.35;;
20026;SDS011;10174;42.688;23.344;2023-04-01T00:25:22;37.67;;;17.38;;
20026;SDS011;10174;42.688;23.344;2023-04-01T00:27:48;41.75;;;17.73;;
20026;SDS011;10174;42.688;23.344;2023-04-01T00:30:14;37.55;;;16.77;;
20026;SDS011;10174;42.688;23.344;2023-04-01T00:32:40;35.83;;;15.25;;
20026;SDS011;10174;42.688;23.344;2023-04-01T00:35:05;39.05;;;17.42;;
20026;SDS011;10174;42.688;23.344;2023-04-01T00:37:34;49.33;;;17.85;;
20026;SDS011;10174;42.688;23.344;2023-04-01T00:40:00;37.03;;;17.40;;
20026;SDS011;10174;42.688;23.344;2023-04-01T00:42:26;47.88;;;17.05;;
20026;SDS011;10174;42.688;23.344;2023-04-01T00:44:52;38.17;;;17.05;;
20026;SDS011;10174;42.688;23.344;2023-04-01T00:47:19;31.88;;;16.58;;
20026;SDS011;10174;42.688;23.344;2023-04-01T00:49:46;35.45;;;14.98;;
20026;SDS011;10174;42.688;23.344;2023-04-01T00:52:16;37.28;;;16.85;;
20026;SDS011;10174;42.688;23.344;2023-04-01T00:54:44;40.55;;;16.42;;
20026;SDS011;10174;42.688;23.344;2023-04-01T00:57:13;34.95;;;16.02;;
20026;SDS011;10174;42.688;23.344;2023-04-01T00:59:45;26.13;;;13.32;;
20026;SDS011;10174;42.688;23.344;2023-04-01T01:02:13;32.30;;;15.32;;
20026;SDS011;10174;42.688;23.344;2023-04-01T01:04:39;39.95;;;15.57;;
20026;SDS011;10174;42.688;23.344;2023-04-01T01:35:33;43.33;;;15.80;;
20026;SDS011;10174;42.688;23.344;2023-04-01T01:38:03;48.15;;;16.05;;
20026;SDS011;10174;42.688;23.344;2023-04-01T01:40:32;37.90;;;14.43;;
20026;SDS011;10174;42.688;23.344;2023-04-01T01:43:04;35.58;;;13.57;;
20026;SDS011;10174;42.688;23.344;2023-04-01T01:45:32;37.03;;;13.35;;
20026;SDS011;10174;42.688;23.344;2023-04-01T01:48:01;28.50;;;12.00;;
20026;SDS011;10174;42.688;23.344;2023-04-01T01:50:29;29.58;;;12.35;;
20026;SDS011;10174;42.688;23.344;2023-04-01T01:53:05;42.53;;;13.90;;
20026;SDS011;10174;42.688;23.344;2023-04-01T01:55:36;39.33;;;13.90;;
20026;SDS011;10174;42.688;23.344;2023-04-01T02:03:21;40.35;;;15.02;;
20026;SDS011;10174;42.688;23.344;2023-04-01T02:05:50;35.75;;;14.18;;
20026;SDS011;10174;42.688;23.344;2023-04-01T02:08:22;29.23;;;13.00;;
20026;SDS011;10174;42.688;23.344;2023-04-01T02:11:01;27.10;;;12.40;;
20026;SDS011;10174;42.688;23.344;2023-04-01T02:13:29;36.80;;;11.30;;
20026;SDS011;10174;42.688;23.344;2023-04-01T02:16:00;34.90;;;11.63;;
20026;SDS011;10174;42.688;23.344;2023-04-01T02:18:33;46.72;;;13.77;;
20026;SDS011;10174;42.688;23.344;2023-04-01T02:21:01;34.22;;;12.63;;
20026;SDS011;10174;42.688;23.344;2023-04-01T02:23:29;42.15;;;13.10;;
20026;SDS011;10174;42.688;23.344;2023-04-01T02:25:56;36.58;;;11.93;;
20026;SDS011;10174;42.688;23.344;2023-04-01T02:28:22;27.95;;;11.45;;
20026;SDS011;10174;42.688;23.344;2023-04-01T02:30:50;50.28;;;13.07;;
20026;SDS011;10174;42.688;23.344;2023-04-01T02:33:16;25.48;;;10.85;;
20026;SDS011;10174;42.688;23.344;2023-04-01T02:35:43;26.77;;;11.57;;
20026;SDS011;10174;42.688;23.344;2023-04-01T02:38:09;33.28;;;11.50;;
20026;SDS011;10174;42.688;23.344;2023-04-01T02:40:42;25.58;;;12.00;;
20026;SDS011;10174;42.688;23.344;2023-04-01T02:43:09;33.90;;;12.73;;
20026;SDS011;10174;42.688;23.344;2023-04-01T02:45:34;31.63;;;11.90;;
20026;SDS011;10174;42.688;23.344;2023-04-01T02:48:00;26.30;;;11.30;;
20026;SDS011;10174;42.688;23.344;2023-04-01T02:50:25;29.48;;;11.57;;
20026;SDS011;10174;42.688;23.344;2023-04-01T02:52:51;31.85;;;13.25;;
20026;SDS011;10174;42.688;23.344;2023-04-01T02:55:16;25.67;;;11.95;;
20026;SDS011;10174;42.688;23.344;2023-04-01T02:57:41;31.85;;;13.68;;
20026;SDS011;10174;42.688;23.344;2023-04-01T03:00:07;31.98;;;13.60;;
20026;SDS011;10174;42.688;23.344;2023-04-01T03:02:36;40.83;;;15.05;;
20026;SDS011;10174;42.688;23.344;2023-04-01T03:05:03;37.60;;;16.17;;
20026;SDS011;10174;42.688;23.344;2023-04-01T03:07:29;35.35;;;16.35;;
20026;SDS011;10174;42.688;23.344;2023-04-01T03:09:54;36.60;;;15.70;;
20026;SDS011;10174;42.688;23.344;2023-04-01T03:12:20;36.67;;;15.45;;
20026;SDS011;10174;42.688;23.344;2023-04-01T03:14:45;39.47;;;16.58;;
20026;SDS011;10174;42.688;23.344;2023-04-01T03:17:10;41.58;;;16.70;;
20026;SDS011;10174;42.688;23.344;2023-04-01T03:19:36;41.08;;;16.75;;
20026;SDS011;10174;42.688;23.344;2023-04-01T03:22:01;42.47;;;17.08;;
20026;SDS011;10174;42.688;23.344;2023-04-01T03:24:27;46.22;;;17.85;;
20026;SDS011;10174;42.688;23.344;2023-04-01T03:26:52;42.25;;;17.10;;
20026;SDS011;10174;42.688;23.344;2023-04-01T03:29:17;33.35;;;16.63;;
20026;SDS011;10174;42.688;23.344;2023-04-01T03:31:43;36.38;;;16.77;;
20026;SDS011;10174;42.688;23.344;2023-04-01T03:34:08;38.20;;;17.00;;
20026;SDS011;10174;42.688;23.344;2023-04-01T03:36:34;40.67;;;17.80;;
20026;SDS011;10174;42.688;23.344;2023-04-01T03:38:59;38.15;;;16.98;;
20026;SDS011;10174;42.688;23.344;2023-04-01T03:41:25;43.33;;;18.35;;
20026;SDS011;10174;42.688;23.344;2023-04-01T03:43:51;37.80;;;17.15;;
20026;SDS011;10174;42.688;23.344;2023-04-01T03:46:18;38.95;;;16.42;;
20026;SDS011;10174;42.688;23.344;2023-04-01T03:48:45;40.03;;;16.77;;
20026;SDS011;10174;42.688;23.344;2023-04-01T03:51:10;35.85;;;16.52;;
20026;SDS011;10174;42.688;23.344;2023-04-01T03:53:36;39.83;;;16.48;;
20026;SDS011;10174;42.688;23.344;2023-04-01T03:56:05;37.58;;;17.17;;
20026;SDS011;10174;42.688;23.344;2023-04-01T03:58:31;37.03;;;16.67;;
20026;SDS011;10174;42.688;23.344;2023-04-01T04:00:56;31.65;;;15.10;;
20026;SDS011;10174;42.688;23.344;2023-04-01T04:03:21;37.63;;;15.98;;
20026;SDS011;10174;42.688;23.344;2023-04-01T04:05:48;36.90;;;15.63;;
20026;SDS011;10174;42.688;23.344;2023-04-01T04:08:14;37.40;;;16.13;;
20026;SDS011;10174;42.688;23.344;2023-04-01T04:10:40;28.38;;;14.57;;
20026;SDS011;10174;42.688;23.344;2023-04-01T04:13:06;31.95;;;14.65;;
20026;SDS011;10174;42.688;23.344;2023-04-01T04:15:32;32.38;;;15.32;;
20026;SDS011;10174;42.688;23.344;2023-04-01T04:17:57;38.53;;;15.05;;
20026;SDS011;10174;42.688;23.344;2023-04-01T04:20:23;38.17;;;14.40;;
20026;SDS011;10174;42.688;23.344;2023-04-01T04:22:48;42.17;;;16.50;;
20026;SDS011;10174;42.688;23.344;2023-04-01T04:25:13;44.63;;;17.45;;
20026;SDS011;10174;42.688;23.344;2023-04-01T04:27:39;37.20;;;14.98;;
20026;SDS011;10174;42.688;23.344;2023-04-01T04:30:04;29.08;;;13.88;;
20026;SDS011;10174;42.688;23.344;2023-04-01T04:32:32;23.45;;;11.13;;
20026;SDS011;10174;42.688;23.344;2023-04-01T04:34:58;25.40;;;11.80;;
20026;SDS011;10174;42.688;23.344;2023-04-01T04:37:23;24.60;;;12.60;;
20026;SDS011;10174;42.688;23.344;2023-04-01T04:39:50;32.40;;;11.85;;
20026;SDS011;10174;42.688;23.344;2023-04-01T04:42:16;35.83;;;12.38;;
20026;SDS011;10174;42.688;23.344;2023-04-01T04:44:41;28.58;;;12.25;;
20026;SDS011;10174;42.688;23.344;2023-04-01T04:47:07;27.40;;;12.07;;
20026;SDS011;10174;42.688;23.344;2023-04-01T04:49:32;24.92;;;11.23;;
20026;SDS011;10174;42.688;23.344;2023-04-01T04:51:57;24.27;;;10.70;;
20026;SDS011;10174;42.688;23.344;2023-04-01T04:54:23;30.90;;;11.52;;
20026;SDS011;10174;42.688;23.344;2023-04-01T04:56:50;28.23;;;11.75;;
20026;SDS011;10174;42.688;23.344;2023-04-01T04:59:16;28.08;;;11.40;;
20026;SDS011;10174;42.688;23.344;2023-04-01T05:01:41;26.23;;;11.48;;
20026;SDS011;10174;42.688;23.344;2023-04-01T05:04:07;33.45;;;12.32;;
20026;SDS011;10174;42.688;23.344;2023-04-01T05:06:32;27.65;;;9.23;;
20026;SDS011;10174;42.688;23.344;2023-04-01T05:08:58;24.90;;;10.52;;
20026;SDS011;10174;42.688;23.344;2023-04-01T05:11:23;33.78;;;11.63;;
20026;SDS011;10174;42.688;23.344;2023-04-01T05:13:48;26.33;;;10.90;;
20026;SDS011;10174;42.688;23.344;2023-04-01T05:16:16;31.20;;;11.00;;
20026;SDS011;10174;42.688;23.344;2023-04-01T05:18:44;25.90;;;11.32;;
20026;SDS011;10174;42.688;23.344;2023-04-01T05:21:10;30.95;;;12.50;;
20026;SDS011;10174;42.688;23.344;2023-04-01T05:23:38;36.33;;;11.48;;
20026;SDS011;10174;42.688;23.344;2023-04-01T05:26:04;27.08;;;10.93;;
20026;SDS011;10174;42.688;23.344;2023-04-01T05:28:31;27.80;;;12.38;;
20026;SDS011;10174;42.688;23.344;2023-04-01T05:30:58;33.10;;;11.40;;
20026;SDS011;10174;42.688;23.344;2023-04-01T05:33:25;29.27;;;10.43;;
20026;SDS011;10174;42.688;23.344;2023-04-01T05:35:50;28.30;;;10.98;;
20026;SDS011;10174;42.688;23.344;2023-04-01T05:38:16;37.05;;;11.68;;
20026;SDS011;10174;42.688;23.344;2023-04-01T05:40:41;26.48;;;10.95;;
20026;SDS011;10174;42.688;23.344;2023-04-01T05:43:06;38.22;;;11.02;;
20026;SDS011;10174;42.688;23.344;2023-04-01T05:45:32;30.35;;;11.48;;
20026;SDS011;10174;42.688;23.344;2023-04-01T05:47:58;28.15;;;10.60;;
20026;SDS011;10174;42.688;23.344;2023-04-01T05:50:24;32.80;;;10.75;;
20026;SDS011;10174;42.688;23.344;2023-04-01T05:52:49;25.25;;;10.30;;
20026;SDS011;10174;42.688;23.344;2023-04-01T05:55:15;30.90;;;10.38;;
20026;SDS011;10174;42.688;23.344;2023-04-01T05:57:40;25.90;;;9.85;;
20026;SDS011;10174;42.688;23.344;2023-04-01T06:00:06;36.50;;;11.35;;
20026;SDS011;10174;42.688;23.344;2023-04-01T06:02:32;26.38;;;10.10;;
20026;SDS011;10174;42.688;23.344;2023-04-01T06:05:11;24.00;;;9.13;;
20026;SDS011;10174;42.688;23.344;2023-04-01T06:07:40;25.60;;;9.25;;
20026;SDS011;10174;42.688;23.344;2023-04-01T06:10:13;22.88;;;8.05;;
20026;SDS011;10174;42.688;23.344;2023-04-01T06:21:07;15.32;;;6.20;;
20026;SDS011;10174;42.688;23.344;2023-04-01T06:26:38;18.98;;;7.57;;
20026;SDS011;10174;42.688;23.344;2023-04-01T06:34:55;23.25;;;6.70;;
20026;SDS011;10174;42.688;23.344;2023-04-01T06:42:59;15.30;;;6.65;;
20026;SDS011;10174;42.688;23.344;2023-04-01T06:45:53;17.40;;;7.45;;
20026;SDS011;10174;42.688;23.344;2023-04-01T06:51:43;19.55;;;7.10;;
20026;SDS011;10174;42.688;23.344;2023-04-01T06:54:34;30.27;;;7.05;;
20026;SDS011;10174;42.688;23.344;2023-04-01T06:59:58;16.88;;;7.20;;
20026;SDS011;10174;42.688;23.344;2023-04-01T07:02:31;15.02;;;7.15;;
20026;SDS011;10174;42.688;23.344;2023-04-01T07:05:04;23.13;;;7.18;;
20026;SDS011;10174;42.688;23.344;2023-04-01T07:10:13;24.50;;;7.82;;
20026;SDS011;10174;42.688;23.344;2023-04-01T07:12:46;26.73;;;7.63;;
20026;SDS011;10174;42.688;23.344;2023-04-01T07:15:28;20.55;;;7.07;;
20026;SDS011;10174;42.688;23.344;2023-04-01T07:18:00;20.45;;;7.43;;
20026;SDS011;10174;42.688;23.344;2023-04-01T07:20:33;23.65;;;7.45;;
20026;SDS011;10174;42.688;23.344;2023-04-01T07:23:02;22.08;;;6.90;;
20026;SDS011;10174;42.688;23.344;2023-04-01T07:25:33;22.52;;;7.75;;
20026;SDS011;10174;42.688;23.344;2023-04-01T07:28:11;19.75;;;7.13;;
20026;SDS011;10174;42.688;23.344;2023-04-01T07:31:04;23.00;;;7.45;;
20026;SDS011;10174;42.688;23.344;2023-04-01T07:39:44;20.90;;;7.72;;
20026;SDS011;10174;42.688;23.344;2023-04-01T07:50:32;28.38;;;7.28;;
20026;SDS011;10174;42.688;23.344;2023-04-01T07:53:18;18.40;;;6.68;;
20026;SDS011;10174;42.688;23.344;2023-04-01T07:55:53;28.42;;;7.03;;
20026;SDS011;10174;42.688;23.344;2023-04-01T08:02:18;20.65;;;5.75;;
20026;SDS011;10174;42.688;23.344;2023-04-01T08:09:17;20.27;;;5.30;;
20026;SDS011;10174;42.688;23.344;2023-04-01T08:22:30;16.65;;;6.05;;
20026;SDS011;10174;42.688;23.344;2023-04-01T08:25:04;20.08;;;5.20;;
20026;SDS011;10174;42.688;23.344;2023-04-01T08:27:43;18.65;;;5.80;;
20026;SDS011;10174;42.688;23.344;2023-04-01T08:30:16;18.83;;;6.72;;
20026;SDS011;10174;42.688;23.344;2023-04-01T08:32:49;24.00;;;8.18;;
20026;SDS011;10174;42.688;23.344;2023-04-01T08:35:28;22.95;;;7.60;;
20026;SDS011;10174;42.688;23.344;2023-04-01T08:37:59;21.67;;;7.85;;
20026;SDS011;10174;42.688;23.344;2023-04-01T08:43:30;16.40;;;6.47;;
20026;SDS011;10174;42.688;23.344;2023-04-01T08:46:23;12.70;;;6.20;;
20026;SDS011;10174;42.688;23.344;2023-04-01T09:00:19;22.90;;;4.15;;
20026;SDS011;10174;42.688;23.344;2023-04-01T09:05:22;13.38;;;4.00;;
20026;SDS011;10174;42.688;23.344;2023-04-01T09:08:08;13.15;;;4.30;;
20026;SDS011;10174;42.688;23.344;2023-04-01T09:13:30;21.90;;;4.60;;
20026;SDS011;10174;42.688;23.344;2023-04-01T09:22:22;24.48;;;4.50;;
20026;SDS011;10174;42.688;23.344;2023-04-01T09:27:57;26.33;;;5.13;;
20026;SDS011;10174;42.688;23.344;2023-04-01T09:30:49;16.08;;;3.80;;
20026;SDS011;10174;42.688;23.344;2023-04-01T09:36:37;18.90;;;4.20;;
20026;SDS011;10174;42.688;23.344;2023-04-01T09:39:37;22.02;;;7.18;;
20026;SDS011;10174;42.688;23.344;2023-04-01T10:22:04;10.95;;;4.45;;
20026;SDS011;10174;42.688;23.344;2023-04-01T10:25:01;16.20;;;5.18;;
20026;SDS011;10174;42.688;23.344;2023-04-01T10:36:14;43.13;;;15.00;;
20026;SDS011;10174;42.688;23.344;2023-04-01T10:59:59;17.20;;;6.25;;
20026;SDS011;10174;42.688;23.344;2023-04-01T11:11:39;27.50;;;7.80;;
20026;SDS011;10174;42.688;23.344;2023-04-01T11:23:21;22.23;;;8.55;;
20026;SDS011;10174;42.688;23.344;2023-04-01T11:40:12;17.88;;;4.15;;
20026;SDS011;10174;42.688;23.344;2023-04-01T11:43:06;14.45;;;2.90;;
20026;SDS011;10174;42.688;23.344;2023-04-01T12:03:36;17.95;;;4.97;;
20026;SDS011;10174;42.688;23.344;2023-04-01T12:06:05;13.73;;;5.13;;
20026;SDS011;10174;42.688;23.344;2023-04-01T12:08:57;22.63;;;5.80;;
20026;SDS011;10174;42.688;23.344;2023-04-01T12:14:14;22.23;;;6.47;;
20026;SDS011;10174;42.688;23.344;2023-04-01T12:19:46;17.70;;;6.95;;
20026;SDS011;10174;42.688;23.344;2023-04-01T12:28:00;18.00;;;6.35;;
20026;SDS011;10174;42.688;23.344;2023-04-01T12:36:50;14.80;;;5.40;;
20026;SDS011;10174;42.688;23.344;2023-04-01T12:56:14;9.57;;;4.72;;
20026;SDS011;10174;42.688;23.344;2023-04-01T13:17:36;17.75;;;6.90;;
20026;SDS011;10174;42.688;23.344;2023-04-01T13:33:41;18.70;;;6.18;;
20026;SDS011;10174;42.688;23.344;2023-04-01T13:36:18;23.60;;;8.00;;
20026;SDS011;10174;42.688;23.344;2023-04-01T13:41:26;8.93;;;5.32;;
20026;SDS011;10174;42.688;23.344;2023-04-01T13:49:32;12.15;;;5.35;;
20026;SDS011;10174;42.688;23.344;2023-04-01T14:03:09;15.38;;;7.07;;
20026;SDS011;10174;42.688;23.344;2023-04-01T14:16:51;13.20;;;5.97;;
20026;SDS011;10174;42.688;23.344;2023-04-01T14:38:06;8.18;;;4.60;;
20026;SDS011;10174;42.688;23.344;2023-04-01T14:40:56;12.93;;;4.40;;
20026;SDS011;10174;42.688;23.344;2023-04-01T14:43:47;14.23;;;6.22;;
20026;SDS011;10174;42.688;23.344;2023-04-01T14:49:22;16.23;;;6.15;;
20026;SDS011;10174;42.688;23.344;2023-04-01T14:51:55;15.73;;;6.00;;
20026;SDS011;10174;42.688;23.344;2023-04-01T14:54:32;13.68;;;4.88;;
20026;SDS011;10174;42.688;23.344;2023-04-01T14:57:11;12.10;;;4.90;;
20026;SDS011;10174;42.688;23.344;2023-04-01T14:59:45;8.32;;;4.07;;
20026;SDS011;10174;42.688;23.344;2023-04-01T15:02:50;10.75;;;4.63;;
20026;SDS011;10174;42.688;23.344;2023-04-01T15:05:39;12.70;;;7.15;;
20026;SDS011;10174;42.688;23.344;2023-04-01T15:08:10;11.20;;;5.53;;
20026;SDS011;10174;42.688;23.344;2023-04-01T15:10:43;11.48;;;4.30;;
20026;SDS011;10174;42.688;23.344;2023-04-01T15:21:29;12.43;;;4.30;;
20026;SDS011;10174;42.688;23.344;2023-04-01T15:26:54;12.85;;;4.57;;
20026;SDS011;10174;42.688;23.344;2023-04-01T15:29:46;12.05;;;4.60;;
20026;SDS011;10174;42.688;23.344;2023-04-01T15:32:42;10.95;;;4.65;;
20026;SDS011;10174;42.688;23.344;2023-04-01T15:40:49;13.80;;;5.20;;
20026;SDS011;10174;42.688;23.344;2023-04-01T15:51:43;15.32;;;5.10;;
20026;SDS011;10174;42.688;23.344;2023-04-01T16:11:21;10.30;;;5.17;;
20026;SDS011;10174;42.688;23.344;2023-04-01T16:30:46;9.05;;;6.18;;
20026;SDS011;10174;42.688;23.344;2023-04-01T16:39:35;10.43;;;6.60;;
20026;SDS011;10174;42.688;23.344;2023-04-01T16:47:38;7.95;;;4.88;;
20026;SDS011;10174;42.688;23.344;2023-04-01T16:53:18;8.27;;;5.03;;
20026;SDS011;10174;42.688;23.344;2023-04-01T16:58:26;8.73;;;5.68;;
20026;SDS011;10174;42.688;23.344;2023-04-01T17:01:09;7.35;;;4.43;;
20026;SDS011;10174;42.688;23.344;2023-04-01T17:11:38;5.25;;;3.75;;
20026;SDS011;10174;42.688;23.344;2023-04-01T17:14:23;5.82;;;3.67;;
20026;SDS011;10174;42.688;23.344;2023-04-01T17:19:42;6.68;;;3.30;;
20026;SDS011;10174;42.688;23.344;2023-04-01T17:25:14;8.00;;;4.50;;
20026;SDS011;10174;42.688;23.344;2023-04-01T17:36:27;5.47;;;3.50;;
20026;SDS011;10174;42.688;23.344;2023-04-01T17:58:17;7.85;;;4.70;;
20026;SDS011;10174;42.688;23.344;2023-04-01T18:03:45;7.85;;;4.78;;
20026;SDS011;10174;42.688;23.344;2023-04-01T18:12:07;6.05;;;4.90;;
20026;SDS011;10174;42.688;23.344;2023-04-01T18:17:22;9.38;;;5.57;;
20026;SDS011;10174;42.688;23.344;2023-04-01T18:22:41;4.82;;;4.30;;
20026;SDS011;10174;42.688;23.344;2023-04-01T18:27:43;4.97;;;4.13;;
20026;SDS011;10174;42.688;23.344;2023-04-01T18:38:33;5.15;;;3.90;;
20026;SDS011;10174;42.688;23.344;2023-04-01T18:43:40;7.35;;;5.20;;
20026;SDS011;10174;42.688;23.344;2023-04-01T18:49:21;6.03;;;4.50;;
20026;SDS011;10174;42.688;23.344;2023-04-01T18:52:37;7.18;;;4.82;;
20026;SDS011;10174;42.688;23.344;2023-04-01T18:55:32;5.60;;;4.63;;
20026;SDS011;10174;42.688;23.344;2023-04-01T19:03:08;5.55;;;3.55;;
20026;SDS011;10174;42.688;23.344;2023-04-01T19:05:43;5.63;;;3.70;;
20026;SDS011;10174;42.688;23.344;2023-04-01T19:08:16;5.50;;;4.22;;
20026;SDS011;10174;42.688;23.344;2023-04-01T19:13:57;4.88;;;3.35;;
20026;SDS011;10174;42.688;23.344;2023-04-01T19:27:02;5.07;;;3.30;;
20026;SDS011;10174;42.688;23.344;2023-04-01T19:32:53;9.18;;;4.05;;
20026;SDS011;10174;42.688;23.344;2023-04-01T19:38:26;5.15;;;2.85;;
20026;SDS011;10174;42.688;23.344;2023-04-01T19:51:57;4.93;;;3.53;;
20026;SDS011;10174;42.688;23.344;2023-04-01T19:57:17;4.38;;;2.42;;
20026;SDS011;10174;42.688;23.344;2023-04-01T20:00:14;5.57;;;2.50;;
20026;SDS011;10174;42.688;23.344;2023-04-01T20:02:59;3.25;;;2.30;;
20026;SDS011;10174;42.688;23.344;2023-04-01T20:17:02;3.22;;;2.55;;
20026;SDS011;10174;42.688;23.344;2023-04-01T20:19:43;4.97;;;3.05;;
20026;SDS011;10174;42.688;23.344;2023-04-01T20:25:18;8.10;;;2.88;;
20026;SDS011;10174;42.688;23.344;2023-04-01T20:38:26;5.68;;;3.50;;
20026;SDS011;10174;42.688;23.344;2023-04-01T20:41:26;3.95;;;2.72;;
20026;SDS011;10174;42.688;23.344;2023-04-01T20:44:12;3.33;;;2.13;;
20026;SDS011;10174;42.688;23.344;2023-04-01T20:49:29;4.55;;;2.45;;
20026;SDS011;10174;42.688;23.344;2023-04-01T20:52:37;7.90;;;2.30;;
20026;SDS011;10174;42.688;23.344;2023-04-01T21:00:24;4.80;;;3.03;;
20026;SDS011;10174;42.688;23.344;2023-04-01T21:11:46;7.90;;;3.00;;
20026;SDS011;10174;42.688;23.344;2023-04-01T21:20:32;6.60;;;2.70;;
20026;SDS011;10174;42.688;23.344;2023-04-01T21:23:15;4.53;;;2.50;;
20026;SDS011;10174;42.688;23.344;2023-04-01T21:31:36;5.05;;;2.40;;
20026;SDS011;10174;42.688;23.344;2023-04-01T21:34:15;4.75;;;2.15;;
20026;SDS011;10174;42.688;23.344;2023-04-01T21:36:59;5.03;;;2.55;;
20026;SDS011;10174;42.688;23.344;2023-04-01T21:39:44;3.47;;;2.00;;
20026;SDS011;10174;42.688;23.344;2023-04-01T21:45:14;3.08;;;1.90;;
20026;SDS011;10174;42.688;23.344;2023-04-01T21:50:25;7.40;;;1.98;;
20026;SDS011;10174;42.688;23.344;2023-04-01T21:53:09;2.47;;;1.90;;
20026;SDS011;10174;42.688;23.344;2023-04-01T21:56:09;2.95;;;1.80;;
20026;SDS011;10174;42.688;23.344;2023-04-01T22:15:43;4.45;;;2.17;;
20026;SDS011;10174;42.688;23.344;2023-04-01T22:18:26;5.38;;;1.90;;
20026;SDS011;10174;42.688;23.344;2023-04-01T22:23:52;6.38;;;2.58;;
20026;SDS011;10174;42.688;23.344;2023-04-01T22:26:49;4.93;;;2.42;;
20026;SDS011;10174;42.688;23.344;2023-04-01T22:29:29;4.03;;;2.10;;
20026;SDS011;10174;42.688;23.344;2023-04-01T22:32:09;6.70;;;2.67;;
20026;SDS011;10174;42.688;23.344;2023-04-01T22:42:46;7.18;;;2.28;;
20026;SDS011;10174;42.688;23.344;2023-04-01T22:45:21;9.70;;;2.95;;
20026;SDS011;10174;42.688;23.344;2023-04-01T22:50:19;4.25;;;1.63;;
20026;SDS011;10174;42.688;23.344;2023-04-01T22:52:50;4.32;;;1.95;;
20026;SDS011;10174;42.688;23.344;2023-04-01T22:55:27;3.85;;;2.00;;
20026;SDS011;10174;42.688;23.344;2023-04-01T22:57:58;5.00;;;2.08;;
20026;SDS011;10174;42.688;23.344;2023-04-01T23:00:45;5.80;;;2.10;;
20026;SDS011;10174;42.688;23.344;2023-04-01T23:03:29;2.53;;;1.50;;
20026;SDS011;10174;42.688;23.344;2023-04-01T23:06:04;4.00;;;1.60;;
20026;SDS011;10174;42.688;23.344;2023-04-01T23:17:34;3.55;;;1.70;;
20026;SDS011;10174;42.688;23.344;2023-04-01T23:22:46;6.22;;;1.67;;
20026;SDS011;10174;42.688;23.344;2023-04-01T23:28:17;3.70;;;1.90;;
20026;SDS011;10174;42.688;23.344;2023-04-01T23:30:47;2.95;;;1.70;;
20026;SDS011;10174;42.688;23.344;2023-04-01T23:33:27;6.15;;;1.50;;
20026;SDS011;10174;42.688;23.344;2023-04-01T23:38:37;4.63;;;1.33;;
20026;SDS011;10174;42.688;23.344;2023-04-01T23:41:06;4.95;;;1.50;;
20026;SDS011;10174;42.688;23.344;2023-04-01T23:43:45;6.43;;;1.50;;
20026;SDS011;10174;42.688;23.344;2023-04-01T23:46:18;3.92;;;1.48;;
20026;SDS011;10174;42.688;23.344;2023-04-01T23:48:44;2.55;;;1.48;;
20026;SDS011;10174;42.688;23.344;2023-04-01T23:53:46;1.90;;;0.80;;
20026;SDS011;10174;42.688;23.344;2023-04-01T23:56:15;1.95;;;1.13;;
20026;SDS011;10174;42.688;23.344;2023-04-01T23:58:44;2.50;;;1.23;;
